ジュノー の空港の天気 - METARとTAF

ジュノー国際空港 ( PAJN / JNU ) - アメリカ アラスカ州ジュノー
飛行場実況気象(Metar)
観測時間01/19 01:53 AKST (01/19 10:53 UTC)
風向・風速静穏 0m/s
視程10km以上
天気現象
少しの雲 雲底高度 910m
全天の8割程度の雲 雲底高度 1520m
全天を覆う雲 雲底高度 2130m
気温-2.8℃
湿度89%
気圧999hPa
METARPAJN 191053Z 00000KT 10SM FEW030 BKN050 OVC070 M03/M04 A2950 RMK AO2 SLP990 T10281044
過去の天気等 Google飛行場航空写真 Wunderground天気予報

過去48時間のMETAR

飛行場予報(TAF)
発表時間: 1/18 20:40 AKST (1/19 05:40 UTC)
予報対象時間: 18日21時 AKST ~ 19日21時 AKST
風向・風速不定 2m/s
視程10km以上
天気現象弱い雪
全天を覆う雲 雲底高度 1220m
18日21時 AKST ~ 18日24時 AKST に一時的に
視程4830m
天気現象弱い雪
全天を覆う雲 雲底高度 910m
19日0時 AKST から
風向・風速不定 2m/s
視程10km以上
全天の4割程度の雲 雲底高度 7620m
PAJN 190540Z 1906/2006 VRB03KT 6SM -SN OVC040
TEMPO 1906/1909 3SM -SN OVC030
FM190900 VRB03KT P6SM SCT250